createdAt,value
2018-06-24T00:00:19.822Z,14.73
2018-06-24T00:02:47.991Z,14.67
2018-06-24T00:05:16.162Z,14.66
2018-06-24T00:07:44.327Z,14.62
2018-06-24T00:10:12.490Z,14.59
2018-06-24T00:12:40.667Z,14.55
2018-06-24T00:15:09.030Z,14.61
2018-06-24T00:17:37.214Z,14.66
2018-06-24T00:20:05.358Z,14.64
2018-06-24T00:22:33.530Z,14.62
2018-06-24T00:25:01.695Z,14.62
2018-06-24T00:27:29.859Z,14.67
2018-06-24T00:29:58.039Z,14.72
2018-06-24T00:32:26.200Z,14.73
2018-06-24T00:34:54.370Z,14.74
2018-06-24T00:37:22.530Z,14.73
2018-06-24T00:39:50.728Z,14.72
2018-06-24T00:42:18.995Z,14.66
2018-06-24T00:44:47.175Z,14.64
2018-06-24T00:47:15.347Z,14.61
2018-06-24T00:49:43.503Z,14.58
2018-06-24T00:52:11.663Z,14.55
2018-06-24T00:54:39.831Z,14.50
2018-06-24T00:57:08.058Z,14.47
2018-06-24T00:59:47.435Z,14.47
2018-06-24T01:02:15.598Z,14.47
2018-06-24T01:04:43.766Z,14.47
2018-06-24T01:07:11.934Z,14.51
2018-06-24T01:09:40.111Z,14.50
2018-06-24T01:12:08.303Z,14.52
2018-06-24T01:14:36.455Z,14.54
2018-06-24T01:17:04.615Z,14.57
2018-06-24T01:19:32.778Z,14.60
2018-06-24T01:22:00.945Z,14.62
2018-06-24T01:24:29.118Z,14.66
2018-06-24T01:26:57.282Z,14.70
2018-06-24T01:29:25.447Z,14.75
2018-06-24T01:31:53.606Z,14.74
2018-06-24T01:34:21.770Z,14.75
2018-06-24T01:36:49.943Z,14.79
2018-06-24T01:39:18.111Z,14.80
2018-06-24T01:41:46.306Z,14.81
2018-06-24T01:44:14.479Z,14.85
2018-06-24T01:46:42.655Z,14.87
2018-06-24T01:49:10.818Z,14.90
2018-06-24T01:51:38.978Z,14.90
2018-06-24T01:54:07.158Z,14.91
2018-06-24T01:56:35.326Z,14.86
2018-06-24T01:59:03.494Z,14.84
2018-06-24T02:01:31.715Z,14.85
2018-06-24T02:03:59.882Z,14.89
2018-06-24T02:06:28.059Z,14.87
2018-06-24T02:08:56.246Z,14.88
2018-06-24T02:11:24.407Z,14.91
2018-06-24T02:13:52.702Z,14.91
2018-06-24T02:16:20.870Z,14.90
2018-06-24T02:18:49.043Z,14.91
2018-06-24T02:21:17.200Z,14.92
2018-06-24T02:23:45.371Z,14.93
2018-06-24T02:26:13.550Z,14.95
2018-06-24T02:28:41.727Z,14.95
2018-06-24T02:31:09.951Z,14.97
2018-06-24T02:33:38.123Z,15.01
2018-06-24T02:36:06.347Z,14.97
2018-06-24T02:38:34.518Z,14.98
2018-06-24T02:41:02.671Z,14.89
2018-06-24T02:43:30.860Z,14.81
2018-06-24T02:45:59.023Z,14.71
2018-06-24T02:48:27.199Z,14.63
2018-06-24T02:50:55.531Z,14.61
2018-06-24T02:53:23.699Z,14.54
2018-06-24T02:55:52.081Z,14.47
2018-06-24T02:58:20.298Z,14.40
2018-06-24T03:00:48.415Z,14.35
2018-06-24T03:03:16.655Z,14.29
2018-06-24T03:05:44.823Z,14.25
2018-06-24T03:08:13.003Z,14.28
2018-06-24T03:10:41.166Z,14.26
2018-06-24T03:13:09.347Z,14.24
2018-06-24T03:15:37.498Z,14.27
2018-06-24T03:18:05.771Z,14.36
2018-06-24T03:20:34.011Z,14.39
2018-06-24T03:23:02.193Z,14.41
2018-06-24T03:25:30.458Z,14.39
2018-06-24T03:27:58.624Z,14.38
2018-06-24T03:30:26.793Z,14.40
2018-06-24T03:32:54.966Z,14.38
2018-06-24T03:35:23.147Z,14.36
2018-06-24T03:37:51.327Z,14.39
2018-06-24T03:40:19.515Z,14.30
2018-06-24T03:42:47.687Z,14.26
2018-06-24T03:45:15.834Z,14.19
2018-06-24T03:47:44.007Z,14.19
2018-06-24T03:50:12.179Z,14.18
2018-06-24T03:52:40.347Z,14.19
2018-06-24T03:55:08.510Z,14.13
2018-06-24T03:57:36.675Z,14.17
2018-06-24T04:00:05.382Z,14.19
2018-06-24T04:02:33.546Z,14.23
2018-06-24T04:05:01.712Z,14.24
2018-06-24T04:07:29.886Z,14.24
2018-06-24T04:09:58.067Z,14.27
2018-06-24T04:12:26.230Z,14.26
2018-06-24T04:14:54.399Z,14.26
2018-06-24T04:17:22.582Z,14.28
2018-06-24T04:19:50.752Z,14.26
2018-06-24T04:22:18.933Z,14.25
2018-06-24T04:24:47.091Z,14.23
2018-06-24T04:27:15.291Z,14.23
2018-06-24T04:29:43.453Z,14.20
2018-06-24T04:32:11.615Z,14.17
2018-06-24T04:34:39.775Z,14.19
2018-06-24T04:37:08.144Z,14.16
2018-06-24T04:39:36.311Z,14.18
2018-06-24T04:42:04.498Z,14.23
2018-06-24T04:44:32.665Z,14.26
2018-06-24T04:47:00.835Z,14.29
2018-06-24T04:49:29.003Z,14.27
2018-06-24T04:51:57.185Z,14.31
2018-06-24T04:54:25.880Z,14.39
2018-06-24T04:56:54.123Z,14.50
2018-06-24T04:59:22.287Z,14.63
2018-06-24T05:01:50.570Z,14.69
2018-06-24T05:04:18.991Z,14.75
2018-06-24T05:06:47.151Z,14.81
2018-06-24T05:09:15.363Z,14.78
2018-06-24T05:11:43.530Z,14.80
2018-06-24T05:14:11.775Z,14.79
2018-06-24T05:16:39.959Z,14.81
2018-06-24T05:19:08.168Z,14.83
2018-06-24T05:21:36.338Z,14.89
2018-06-24T05:24:04.564Z,14.97
2018-06-24T05:26:32.771Z,15.08
2018-06-24T05:29:00.970Z,15.24
2018-06-24T05:31:29.170Z,15.34
2018-06-24T05:33:57.354Z,15.49
2018-06-24T05:36:25.539Z,15.62
2018-06-24T05:38:53.766Z,15.75
2018-06-24T05:41:21.942Z,15.85
2018-06-24T05:43:50.173Z,15.94
2018-06-24T05:46:18.361Z,15.96
2018-06-24T05:48:46.560Z,15.93
2018-06-24T05:51:14.752Z,15.90
2018-06-24T05:53:43.091Z,15.88
2018-06-24T05:56:11.295Z,16.00
2018-06-24T05:58:39.471Z,16.00
2018-06-24T06:01:07.862Z,16.13
2018-06-24T06:03:36.076Z,16.30
2018-06-24T06:06:04.267Z,16.49
2018-06-24T06:08:32.443Z,16.65
2018-06-24T06:11:00.621Z,16.62
2018-06-24T06:13:28.796Z,16.72
2018-06-24T06:15:56.954Z,16.91
2018-06-24T06:18:25.126Z,16.83
2018-06-24T06:20:53.299Z,16.73
2018-06-24T06:23:21.473Z,16.81
2018-06-24T06:25:49.640Z,16.98
2018-06-24T06:28:17.819Z,17.09
2018-06-24T06:30:45.998Z,17.18
2018-06-24T06:33:14.172Z,17.32
2018-06-24T06:35:42.354Z,17.35
2018-06-24T06:38:10.546Z,17.33
2018-06-24T06:40:39.591Z,17.50
2018-06-24T06:43:07.803Z,17.49
2018-06-24T06:45:36.057Z,17.45
2018-06-24T06:48:04.162Z,17.33
2018-06-24T06:50:32.372Z,17.06
2018-06-24T06:53:00.543Z,17.04
2018-06-24T06:55:28.742Z,16.92
2018-06-24T06:57:56.916Z,16.86
2018-06-24T07:00:25.083Z,16.74
2018-06-24T07:02:53.250Z,16.90
2018-06-24T07:05:21.459Z,17.06
2018-06-24T07:07:49.622Z,17.26
2018-06-24T07:10:17.898Z,17.18
2018-06-24T07:12:46.079Z,17.34
2018-06-24T07:15:14.258Z,17.31
2018-06-24T07:17:42.439Z,17.49
2018-06-24T07:20:10.622Z,17.59
2018-06-24T07:22:38.794Z,17.85
2018-06-24T07:25:07.151Z,18.08
2018-06-24T07:27:35.346Z,18.21
2018-06-24T07:30:03.542Z,18.35
2018-06-24T07:32:31.739Z,18.62
2018-06-24T07:35:00.064Z,18.62
2018-06-24T07:37:28.214Z,18.29
2018-06-24T07:39:56.498Z,18.10
2018-06-24T07:42:24.659Z,18.01
2018-06-24T07:44:53.279Z,18.21
2018-06-24T07:47:21.446Z,18.00
2018-06-24T07:49:49.607Z,17.86
2018-06-24T07:52:17.791Z,18.04
2018-06-24T07:54:45.948Z,17.94
2018-06-24T07:57:14.235Z,17.63
2018-06-24T07:59:42.406Z,17.65
2018-06-24T08:02:10.579Z,17.78
2018-06-24T08:04:38.755Z,17.98
2018-06-24T08:07:07.131Z,17.72
2018-06-24T08:09:35.318Z,17.88
2018-06-24T08:12:03.491Z,17.82
2018-06-24T08:14:31.690Z,17.99
2018-06-24T08:16:59.865Z,18.21
2018-06-24T08:19:28.012Z,17.94
2018-06-24T08:21:56.328Z,17.83
2018-06-24T08:24:24.712Z,17.94
2018-06-24T08:26:53.186Z,18.08
2018-06-24T08:29:21.428Z,18.10
2018-06-24T08:31:49.607Z,18.32
2018-06-24T08:34:17.767Z,18.02
2018-06-24T08:36:45.947Z,17.53
2018-06-24T08:39:14.115Z,17.58
2018-06-24T08:41:42.283Z,17.67
2018-06-24T08:44:10.473Z,17.78
2018-06-24T08:46:38.666Z,17.65
2018-06-24T08:49:07.527Z,17.96
2018-06-24T08:51:35.712Z,18.33
2018-06-24T08:54:03.960Z,18.48
2018-06-24T08:56:32.119Z,18.40
2018-06-24T08:59:00.275Z,18.42
2018-06-24T09:01:28.450Z,18.52
2018-06-24T09:03:56.666Z,18.40
2018-06-24T09:06:24.883Z,18.52
2018-06-24T09:08:53.622Z,18.82
2018-06-24T09:11:21.792Z,18.77
2018-06-24T09:13:49.969Z,18.74
2018-06-24T09:16:18.137Z,19.44
2018-06-24T09:18:46.755Z,19.64
2018-06-24T09:21:15.032Z,19.67
2018-06-24T09:23:43.230Z,19.55
2018-06-24T09:26:11.403Z,19.19
2018-06-24T09:28:39.570Z,19.42
2018-06-24T09:31:07.739Z,19.46
2018-06-24T09:33:35.894Z,19.59
2018-06-24T09:36:04.086Z,19.89
2018-06-24T09:38:32.251Z,20.10
2018-06-24T09:41:00.435Z,20.29
2018-06-24T09:43:28.576Z,20.43
2018-06-24T09:45:56.731Z,20.73
2018-06-24T09:48:24.887Z,20.94
2018-06-24T09:50:53.066Z,20.85
2018-06-24T09:53:21.278Z,20.86
2018-06-24T09:55:49.434Z,20.78
2018-06-24T09:58:17.606Z,20.22
2018-06-24T10:00:45.776Z,20.30
2018-06-24T10:03:13.935Z,20.35
2018-06-24T10:05:42.099Z,20.68
2018-06-24T10:08:10.262Z,20.69
2018-06-24T10:10:38.421Z,20.70
2018-06-24T10:13:06.575Z,20.06
2018-06-24T10:15:34.740Z,19.89
2018-06-24T10:18:02.912Z,19.78
2018-06-24T10:20:31.079Z,19.88
2018-06-24T10:22:59.254Z,20.51
2018-06-24T10:25:27.423Z,21.27
2018-06-24T10:27:55.584Z,20.90
2018-06-24T10:30:23.812Z,20.70
2018-06-24T10:32:52.065Z,20.50
2018-06-24T10:35:20.256Z,20.87
2018-06-24T10:37:48.412Z,21.11
2018-06-24T10:40:16.587Z,20.44
2018-06-24T10:42:44.746Z,20.06
2018-06-24T10:45:12.915Z,20.09
2018-06-24T10:47:41.078Z,20.43
2018-06-24T10:50:09.303Z,21.11
2018-06-24T10:52:37.723Z,21.42
2018-06-24T10:55:05.933Z,20.35
2018-06-24T10:57:34.119Z,20.05
2018-06-24T11:00:02.271Z,20.11
2018-06-24T11:02:30.442Z,20.60
2018-06-24T11:04:58.663Z,21.88
2018-06-24T11:07:27.947Z,22.81
2018-06-24T11:09:56.118Z,22.94
2018-06-24T11:12:24.314Z,22.39
2018-06-24T11:14:52.483Z,22.07
2018-06-24T11:17:20.642Z,21.33
2018-06-24T11:19:48.833Z,21.57
2018-06-24T11:22:16.990Z,21.66
2018-06-24T11:24:45.159Z,22.05
2018-06-24T11:27:13.323Z,22.53
2018-06-24T11:29:41.706Z,22.72
2018-06-24T11:32:09.884Z,23.03
2018-06-24T11:34:38.043Z,22.61
2018-06-24T11:37:06.295Z,22.84
2018-06-24T11:39:34.451Z,22.96
2018-06-24T11:42:02.610Z,22.19
2018-06-24T11:44:30.784Z,22.51
2018-06-24T11:46:58.944Z,22.84
2018-06-24T11:49:27.111Z,22.41
2018-06-24T11:51:55.267Z,22.39
2018-06-24T11:54:23.514Z,22.57
2018-06-24T11:56:51.723Z,22.97
2018-06-24T11:59:20.055Z,23.25
2018-06-24T12:01:48.222Z,23.48
2018-06-24T12:04:16.484Z,23.50
2018-06-24T12:06:44.625Z,23.47
2018-06-24T12:09:13.630Z,22.96
2018-06-24T12:11:44.743Z,22.38
2018-06-24T12:14:13.045Z,22.66
2018-06-24T12:16:41.241Z,22.59
2018-06-24T12:19:10.492Z,22.73
2018-06-24T12:21:38.686Z,23.24
2018-06-24T12:24:06.865Z,23.75
2018-06-24T12:26:35.456Z,23.75
2018-06-24T12:29:03.654Z,23.47
2018-06-24T12:31:33.626Z,22.98
2018-06-24T12:34:01.819Z,22.62
2018-06-24T12:36:33.791Z,22.14
2018-06-24T12:39:02.371Z,22.37
2018-06-24T12:41:30.551Z,22.72
2018-06-24T12:43:58.728Z,22.93
2018-06-24T12:46:26.923Z,23.00
2018-06-24T12:48:55.095Z,22.67
2018-06-24T12:51:23.267Z,22.85
2018-06-24T12:53:51.431Z,23.15
2018-06-24T12:56:19.610Z,22.74
2018-06-24T12:58:47.921Z,22.38
2018-06-24T13:01:15.994Z,22.17
2018-06-24T13:03:44.363Z,22.55
2018-06-24T13:06:12.542Z,22.83
2018-06-24T13:08:40.722Z,22.88
2018-06-24T13:11:08.910Z,22.64
2018-06-24T13:13:37.106Z,22.48
2018-06-24T13:16:05.314Z,22.34
2018-06-24T13:18:33.776Z,22.02
2018-06-24T13:21:01.966Z,21.84
2018-06-24T13:23:30.263Z,21.54
2018-06-24T13:25:58.432Z,21.48
2018-06-24T13:28:26.598Z,21.99
2018-06-24T13:30:54.959Z,21.68
2018-06-24T13:33:23.158Z,22.09
2018-06-24T13:35:51.321Z,21.69
2018-06-24T13:38:19.487Z,21.59
2018-06-24T13:40:47.639Z,21.21
2018-06-24T13:43:15.828Z,21.23
2018-06-24T13:45:44.011Z,21.42
2018-06-24T13:48:12.187Z,21.20
2018-06-24T13:50:40.340Z,21.31
2018-06-24T13:53:08.646Z,21.44
2018-06-24T13:55:36.809Z,21.78
2018-06-24T13:58:05.424Z,21.94
2018-06-24T14:00:33.567Z,21.90
2018-06-24T14:03:01.762Z,21.81
2018-06-24T14:05:29.971Z,21.69
2018-06-24T14:07:58.169Z,21.57
2018-06-24T14:10:26.331Z,21.44
2018-06-24T14:12:54.627Z,21.29
2018-06-24T14:15:22.878Z,21.09
2018-06-24T14:17:51.080Z,20.96
2018-06-24T14:20:19.463Z,20.55
2018-06-24T14:22:48.025Z,20.67
2018-06-24T14:25:16.614Z,20.89
2018-06-24T14:27:44.924Z,20.51
2018-06-24T14:30:13.131Z,20.40
2018-06-24T14:32:41.322Z,20.33
2018-06-24T14:35:09.696Z,20.28
2018-06-24T14:37:37.904Z,20.35
2018-06-24T14:40:06.104Z,20.64
2018-06-24T14:42:34.294Z,21.02
2018-06-24T14:45:02.580Z,20.99
2018-06-24T14:47:30.822Z,20.91
2018-06-24T14:49:59.347Z,20.75
2018-06-24T14:52:27.526Z,20.87
2018-06-24T14:54:55.698Z,20.86
2018-06-24T14:57:23.882Z,20.90
2018-06-24T14:59:52.057Z,20.89
2018-06-24T15:02:20.288Z,20.53
2018-06-24T15:04:48.479Z,20.42
2018-06-24T15:07:16.659Z,20.36
2018-06-24T15:09:44.851Z,20.22
2018-06-24T15:12:13.051Z,20.03
2018-06-24T15:14:41.199Z,20.04
2018-06-24T15:17:09.386Z,20.01
2018-06-24T15:19:37.606Z,20.12
2018-06-24T15:22:05.804Z,20.02
2018-06-24T15:24:34.008Z,20.22
2018-06-24T15:27:02.217Z,20.21
2018-06-24T15:29:30.375Z,20.10
2018-06-24T15:31:58.530Z,19.78
2018-06-24T15:34:26.700Z,19.68
2018-06-24T15:36:54.995Z,19.92
2018-06-24T15:39:23.183Z,19.67
2018-06-24T15:41:51.355Z,19.82
2018-06-24T15:44:19.530Z,19.96
2018-06-24T15:46:47.683Z,20.03
2018-06-24T15:49:15.864Z,20.17
2018-06-24T15:51:44.029Z,20.13
2018-06-24T15:54:12.207Z,20.21
2018-06-24T15:56:40.370Z,20.18
2018-06-24T15:59:08.548Z,19.60
2018-06-24T16:01:36.711Z,19.46
2018-06-24T16:04:04.903Z,19.34
2018-06-24T16:06:33.095Z,19.44
2018-06-24T16:09:01.286Z,19.30
2018-06-24T16:11:29.470Z,19.20
2018-06-24T16:13:57.662Z,19.32
2018-06-24T16:16:25.826Z,19.42
2018-06-24T16:18:54.003Z,19.02
2018-06-24T16:21:22.199Z,19.23
2018-06-24T16:23:50.368Z,19.21
2018-06-24T16:26:18.530Z,19.30
2018-06-24T16:28:46.706Z,19.47
2018-06-24T16:31:14.907Z,19.24
2018-06-24T16:33:43.287Z,19.28
2018-06-24T16:36:11.620Z,19.21
2018-06-24T16:38:39.770Z,19.14
2018-06-24T16:41:07.940Z,19.25
2018-06-24T16:43:36.114Z,19.33
2018-06-24T16:46:04.280Z,19.25
2018-06-24T16:48:32.430Z,19.07
2018-06-24T16:51:00.592Z,18.93
2018-06-24T16:53:28.746Z,18.79
2018-06-24T16:55:57.006Z,18.51
2018-06-24T16:58:25.171Z,18.26
2018-06-24T17:00:53.355Z,18.17
2018-06-24T17:03:21.518Z,18.00
2018-06-24T17:05:49.696Z,17.99
2018-06-24T17:08:17.879Z,17.91
2018-06-24T17:10:46.114Z,17.94
2018-06-24T17:13:14.260Z,18.00
2018-06-24T17:15:42.443Z,18.17
2018-06-24T17:18:10.618Z,18.03
2018-06-24T17:20:38.775Z,17.91
2018-06-24T17:23:06.959Z,17.80
2018-06-24T17:25:35.148Z,17.82
2018-06-24T17:28:03.487Z,17.76
2018-06-24T17:30:31.622Z,17.84
2018-06-24T17:32:59.818Z,17.86
2018-06-24T17:35:34.655Z,17.82
2018-06-24T17:38:02.906Z,17.82
2018-06-24T17:40:31.904Z,17.75
2018-06-24T17:43:00.128Z,17.80
2018-06-24T17:45:28.311Z,17.77
2018-06-24T17:47:56.643Z,17.84
2018-06-24T17:50:24.816Z,17.78
2018-06-24T17:52:53.015Z,17.79
2018-06-24T17:55:21.178Z,17.72
2018-06-24T17:57:49.355Z,17.88
2018-06-24T18:00:17.615Z,17.85
2018-06-24T18:02:45.815Z,17.76
2018-06-24T18:05:13.991Z,17.62
2018-06-24T18:07:42.203Z,17.55
2018-06-24T18:10:10.871Z,17.54
2018-06-24T18:12:39.107Z,17.62
2018-06-24T18:15:07.324Z,17.67
2018-06-24T18:17:35.474Z,17.74
2018-06-24T18:20:03.675Z,17.69
2018-06-24T18:22:31.871Z,17.60
2018-06-24T18:25:00.052Z,17.56
2018-06-24T18:27:28.259Z,17.52
2018-06-24T18:29:56.439Z,17.42
2018-06-24T18:32:24.628Z,17.36
2018-06-24T18:34:52.994Z,17.27
2018-06-24T18:37:21.196Z,17.29
2018-06-24T18:39:49.436Z,17.18
2018-06-24T18:42:17.555Z,17.20
2018-06-24T18:44:46.045Z,17.12
2018-06-24T18:47:13.939Z,17.21
2018-06-24T18:49:42.110Z,17.13
2018-06-24T18:52:10.279Z,17.18
2018-06-24T18:54:38.489Z,17.28
2018-06-24T18:57:06.673Z,17.20
2018-06-24T18:59:35.019Z,17.22
2018-06-24T19:02:03.251Z,17.30
2018-06-24T19:04:31.395Z,17.40
2018-06-24T19:07:00.120Z,17.34
2018-06-24T19:09:28.366Z,17.30
2018-06-24T19:11:56.563Z,17.29
2018-06-24T19:14:24.767Z,17.36
2018-06-24T19:16:52.947Z,17.40
2018-06-24T19:19:21.130Z,17.34
2018-06-24T19:21:49.308Z,17.26
2018-06-24T19:24:17.519Z,17.15
2018-06-24T19:26:45.681Z,17.07
2018-06-24T19:29:13.852Z,17.21
2018-06-24T19:31:42.011Z,17.17
2018-06-24T19:34:10.427Z,17.11
2018-06-24T19:36:38.599Z,17.04
2018-06-24T19:39:09.599Z,17.00
2018-06-24T19:41:37.715Z,17.00
2018-06-24T19:44:05.902Z,16.95
2018-06-24T19:46:34.075Z,16.86
2018-06-24T19:49:02.243Z,16.92
2018-06-24T19:51:30.407Z,16.96
2018-06-24T19:53:58.610Z,16.94
2018-06-24T19:56:26.791Z,16.90
2018-06-24T19:58:54.974Z,16.90
2018-06-24T20:01:23.148Z,16.95
2018-06-24T20:03:51.324Z,16.92
2018-06-24T20:06:19.499Z,16.87
2018-06-24T20:08:47.670Z,16.75
2018-06-24T20:11:15.843Z,16.69
2018-06-24T20:13:44.010Z,16.75
2018-06-24T20:16:12.310Z,16.74
2018-06-24T20:18:40.698Z,16.80
2018-06-24T20:21:08.867Z,16.89
2018-06-24T20:23:37.034Z,16.89
2018-06-24T20:26:05.428Z,16.87
2018-06-24T20:28:33.596Z,16.86
2018-06-24T20:31:01.807Z,16.93
2018-06-24T20:33:29.974Z,16.85
2018-06-24T20:35:58.181Z,16.63
2018-06-24T20:38:26.355Z,16.35
2018-06-24T20:40:54.518Z,16.30
2018-06-24T20:43:22.743Z,16.22
2018-06-24T20:45:51.111Z,16.20
2018-06-24T20:48:19.394Z,16.09
2018-06-24T20:50:47.576Z,15.94
2018-06-24T20:53:15.735Z,15.90
2018-06-24T20:55:43.918Z,15.97
2018-06-24T20:58:12.094Z,15.89
2018-06-24T21:00:40.247Z,15.91
2018-06-24T21:03:08.479Z,15.85
2018-06-24T21:05:36.681Z,15.93
2018-06-24T21:08:04.942Z,15.94
2018-06-24T21:10:33.123Z,15.90
2018-06-24T21:13:01.459Z,15.98
2018-06-24T21:15:29.646Z,15.97
2018-06-24T21:17:57.832Z,16.06
2018-06-24T21:20:26.003Z,16.14
2018-06-24T21:22:54.170Z,16.12
2018-06-24T21:25:22.367Z,16.07
2018-06-24T21:27:50.539Z,16.08
2018-06-24T21:30:18.699Z,15.98
2018-06-24T21:32:46.887Z,16.05
2018-06-24T21:35:15.064Z,16.06
2018-06-24T21:37:43.250Z,16.03
2018-06-24T21:40:11.426Z,16.18
2018-06-24T21:42:39.633Z,16.12
2018-06-24T21:45:07.790Z,16.23
2018-06-24T21:47:35.970Z,16.15
2018-06-24T21:50:04.334Z,16.25
2018-06-24T21:52:32.506Z,16.28
2018-06-24T21:55:00.675Z,16.24
2018-06-24T21:57:28.843Z,16.30
2018-06-24T21:59:57.006Z,16.26
2018-06-24T22:02:25.183Z,16.25
2018-06-24T22:04:53.355Z,16.36
2018-06-24T22:07:21.530Z,16.35
2018-06-24T22:09:49.715Z,16.23
2018-06-24T22:12:17.875Z,16.18
2018-06-24T22:14:46.062Z,16.11
2018-06-24T22:17:14.234Z,15.95
2018-06-24T22:19:42.410Z,15.96
2018-06-24T22:22:10.587Z,16.01
2018-06-24T22:24:38.750Z,16.11
2018-06-24T22:27:07.043Z,16.17
2018-06-24T22:29:35.099Z,16.11
2018-06-24T22:32:03.298Z,16.16
2018-06-24T22:34:31.466Z,16.13
2018-06-24T22:36:59.655Z,16.25
2018-06-24T22:39:27.815Z,16.27
2018-06-24T22:41:55.995Z,16.28
2018-06-24T22:44:24.162Z,16.34
2018-06-24T22:46:52.715Z,16.31
2018-06-24T22:49:20.884Z,16.31
2018-06-24T22:51:49.058Z,16.29
2018-06-24T22:54:17.223Z,16.19
2018-06-24T22:56:45.387Z,16.24
2018-06-24T22:59:24.903Z,16.23
2018-06-24T23:01:53.271Z,16.29
2018-06-24T23:04:21.518Z,16.28
2018-06-24T23:06:49.728Z,16.28
2018-06-24T23:09:17.871Z,16.25
2018-06-24T23:11:46.043Z,16.23
2018-06-24T23:14:14.206Z,16.29
2018-06-24T23:16:42.384Z,16.24
2018-06-24T23:19:10.546Z,16.12
2018-06-24T23:21:38.724Z,15.99
2018-06-24T23:24:06.891Z,15.99
2018-06-24T23:26:35.063Z,16.08
2018-06-24T23:29:03.227Z,15.80
2018-06-24T23:31:31.398Z,15.67
2018-06-24T23:33:59.566Z,15.72
2018-06-24T23:36:27.730Z,15.65
2018-06-24T23:38:55.903Z,15.74
2018-06-24T23:41:24.070Z,15.78
2018-06-24T23:43:52.256Z,15.71
2018-06-24T23:46:20.419Z,15.75
2018-06-24T23:48:48.663Z,15.80
2018-06-24T23:51:16.839Z,15.87
2018-06-24T23:53:44.998Z,15.91
2018-06-24T23:56:13.178Z,15.96
2018-06-24T23:58:41.341Z,16.01
